sensor_id;sensor_type;location;lat;lon;timestamp;temperature;humidity
16154;DHT22;8182;55.648;13.208;2023-08-12T00:02:33;15.50;99.90
16154;DHT22;8182;55.648;13.208;2023-08-12T00:05:01;15.50;99.90
16154;DHT22;8182;55.648;13.208;2023-08-12T00:07:29;15.50;99.90
16154;DHT22;8182;55.648;13.208;2023-08-12T00:09:56;15.50;99.90
16154;DHT22;8182;55.648;13.208;2023-08-12T00:12:23;15.50;99.90
16154;DHT22;8182;55.648;13.208;2023-08-12T00:14:50;15.50;99.90
16154;DHT22;8182;55.648;13.208;2023-08-12T00:17:17;15.50;99.90
16154;DHT22;8182;55.648;13.208;2023-08-12T00:19:44;15.50;99.90
16154;DHT22;8182;55.648;13.208;2023-08-12T00:22:12;15.60;99.90
16154;DHT22;8182;55.648;13.208;2023-08-12T00:24:39;15.60;99.90
16154;DHT22;8182;55.648;13.208;2023-08-12T00:27:06;15.60;99.90
16154;DHT22;8182;55.648;13.208;2023-08-12T00:29:34;15.60;99.90
16154;DHT22;8182;55.648;13.208;2023-08-12T00:32:01;15.70;99.90
16154;DHT22;8182;55.648;13.208;2023-08-12T00:34:28;15.60;99.90
16154;DHT22;8182;55.648;13.208;2023-08-12T00:36:55;15.60;99.90
16154;DHT22;8182;55.648;13.208;2023-08-12T00:39:23;15.70;99.90
16154;DHT22;8182;55.648;13.208;2023-08-12T00:41:50;15.70;99.90
16154;DHT22;8182;55.648;13.208;2023-08-12T00:44:17;15.60;99.90
16154;DHT22;8182;55.648;13.208;2023-08-12T00:46:44;15.60;99.90
16154;DHT22;8182;55.648;13.208;2023-08-12T00:49:12;15.60;99.90
16154;DHT22;8182;55.648;13.208;2023-08-12T00:51:40;15.70;99.90
16154;DHT22;8182;55.648;13.208;2023-08-12T00:54:09;15.70;99.90
16154;DHT22;8182;55.648;13.208;2023-08-12T00:56:40;15.70;99.90
16154;DHT22;8182;55.648;13.208;2023-08-12T00:59:09;15.70;99.90
16154;DHT22;8182;55.648;13.208;2023-08-12T01:01:39;15.70;99.90
16154;DHT22;8182;55.648;13.208;2023-08-12T01:04:06;15.70;99.90
16154;DHT22;8182;55.648;13.208;2023-08-12T01:06:33;15.80;99.90
16154;DHT22;8182;55.648;13.208;2023-08-12T01:09:00;15.80;99.90
16154;DHT22;8182;55.648;13.208;2023-08-12T01:11:35;15.80;99.90
16154;DHT22;8182;55.648;13.208;2023-08-12T01:14:12;15.80;99.90
16154;DHT22;8182;55.648;13.208;2023-08-12T01:16:43;15.80;99.90
16154;DHT22;8182;55.648;13.208;2023-08-12T01:19:20;15.80;99.90
16154;DHT22;8182;55.648;13.208;2023-08-12T01:21:53;15.90;99.90
16154;DHT22;8182;55.648;13.208;2023-08-12T01:24:24;15.90;99.90
16154;DHT22;8182;55.648;13.208;2023-08-12T01:26:51;15.90;99.90
16154;DHT22;8182;55.648;13.208;2023-08-12T01:29:20;15.90;99.90
16154;DHT22;8182;55.648;13.208;2023-08-12T01:31:51;15.90;99.90
16154;DHT22;8182;55.648;13.208;2023-08-12T01:34:29;16.00;99.90
16154;DHT22;8182;55.648;13.208;2023-08-12T01:36:58;16.00;99.90
16154;DHT22;8182;55.648;13.208;2023-08-12T01:39:28;16.00;99.90
16154;DHT22;8182;55.648;13.208;2023-08-12T01:41:57;16.10;99.90
16154;DHT22;8182;55.648;13.208;2023-08-12T01:44:24;16.10;99.90
16154;DHT22;8182;55.648;13.208;2023-08-12T01:46:52;16.10;99.90
16154;DHT22;8182;55.648;13.208;2023-08-12T01:49:19;16.10;99.90
16154;DHT22;8182;55.648;13.208;2023-08-12T01:51:46;16.10;99.90
16154;DHT22;8182;55.648;13.208;2023-08-12T01:54:13;16.20;99.90
16154;DHT22;8182;55.648;13.208;2023-08-12T01:56:41;16.20;99.90
16154;DHT22;8182;55.648;13.208;2023-08-12T01:59:08;16.10;99.90
16154;DHT22;8182;55.648;13.208;2023-08-12T02:01:35;16.10;99.90
16154;DHT22;8182;55.648;13.208;2023-08-12T02:04:02;16.10;99.90
16154;DHT22;8182;55.648;13.208;2023-08-12T02:06:29;16.20;99.90
16154;DHT22;8182;55.648;13.208;2023-08-12T02:08:56;16.20;99.90
16154;DHT22;8182;55.648;13.208;2023-08-12T02:11:23;16.20;99.90
16154;DHT22;8182;55.648;13.208;2023-08-12T02:13:51;16.20;99.90
16154;DHT22;8182;55.648;13.208;2023-08-12T02:16:21;16.20;99.90
16154;DHT22;8182;55.648;13.208;2023-08-12T02:18:48;16.30;99.90
16154;DHT22;8182;55.648;13.208;2023-08-12T02:21:15;16.30;99.90
16154;DHT22;8182;55.648;13.208;2023-08-12T02:23:42;16.30;99.90
16154;DHT22;8182;55.648;13.208;2023-08-12T02:26:09;16.30;99.90
16154;DHT22;8182;55.648;13.208;2023-08-12T02:28:36;16.30;99.90
16154;DHT22;8182;55.648;13.208;2023-08-12T02:31:04;16.40;99.90
16154;DHT22;8182;55.648;13.208;2023-08-12T02:33:31;16.40;99.90
16154;DHT22;8182;55.648;13.208;2023-08-12T02:35:58;16.30;99.90
16154;DHT22;8182;55.648;13.208;2023-08-12T02:38:25;16.30;99.90
16154;DHT22;8182;55.648;13.208;2023-08-12T02:40:52;16.30;99.90
16154;DHT22;8182;55.648;13.208;2023-08-12T02:43:19;16.30;99.90
16154;DHT22;8182;55.648;13.208;2023-08-12T02:45:46;16.30;99.90
16154;DHT22;8182;55.648;13.208;2023-08-12T02:48:14;16.30;99.90
16154;DHT22;8182;55.648;13.208;2023-08-12T02:50:41;16.30;99.90
16154;DHT22;8182;55.648;13.208;2023-08-12T02:53:08;16.30;99.90
16154;DHT22;8182;55.648;13.208;2023-08-12T02:55:36;16.30;99.90
16154;DHT22;8182;55.648;13.208;2023-08-12T02:58:03;16.30;99.90
16154;DHT22;8182;55.648;13.208;2023-08-12T03:00:30;16.20;99.90
16154;DHT22;8182;55.648;13.208;2023-08-12T03:02:57;16.20;99.90
16154;DHT22;8182;55.648;13.208;2023-08-12T03:05:26;16.20;99.90
16154;DHT22;8182;55.648;13.208;2023-08-12T03:07:53;16.30;99.90
16154;DHT22;8182;55.648;13.208;2023-08-12T03:10:19;16.30;99.90
16154;DHT22;8182;55.648;13.208;2023-08-12T03:12:46;16.30;99.90
16154;DHT22;8182;55.648;13.208;2023-08-12T03:15:13;16.30;99.90
16154;DHT22;8182;55.648;13.208;2023-08-12T03:17:41;16.30;99.90
16154;DHT22;8182;55.648;13.208;2023-08-12T03:20:08;16.30;99.90
16154;DHT22;8182;55.648;13.208;2023-08-12T03:22:37;16.30;99.90
16154;DHT22;8182;55.648;13.208;2023-08-12T03:25:05;16.30;99.90
16154;DHT22;8182;55.648;13.208;2023-08-12T03:27:32;16.30;99.90
16154;DHT22;8182;55.648;13.208;2023-08-12T03:29:59;16.40;99.90
16154;DHT22;8182;55.648;13.208;2023-08-12T03:32:26;16.40;99.90
16154;DHT22;8182;55.648;13.208;2023-08-12T03:34:55;16.40;99.90
16154;DHT22;8182;55.648;13.208;2023-08-12T03:37:22;16.40;99.90
16154;DHT22;8182;55.648;13.208;2023-08-12T03:39:50;16.40;99.90
16154;DHT22;8182;55.648;13.208;2023-08-12T03:42:17;16.40;99.90
16154;DHT22;8182;55.648;13.208;2023-08-12T03:44:45;16.40;99.90
16154;DHT22;8182;55.648;13.208;2023-08-12T03:47:12;16.40;99.90
16154;DHT22;8182;55.648;13.208;2023-08-12T03:49:39;16.40;99.90
16154;DHT22;8182;55.648;13.208;2023-08-12T03:52:06;16.50;99.90
16154;DHT22;8182;55.648;13.208;2023-08-12T03:54:34;16.50;99.90
16154;DHT22;8182;55.648;13.208;2023-08-12T03:57:02;16.50;99.90
16154;DHT22;8182;55.648;13.208;2023-08-12T03:59:29;16.50;99.90
16154;DHT22;8182;55.648;13.208;2023-08-12T04:01:56;16.50;99.90
16154;DHT22;8182;55.648;13.208;2023-08-12T04:04:23;16.50;99.90
16154;DHT22;8182;55.648;13.208;2023-08-12T04:06:50;16.50;99.90
16154;DHT22;8182;55.648;13.208;2023-08-12T04:09:17;16.60;99.90
16154;DHT22;8182;55.648;13.208;2023-08-12T04:11:45;16.50;99.90
16154;DHT22;8182;55.648;13.208;2023-08-12T04:14:13;16.60;99.90
16154;DHT22;8182;55.648;13.208;2023-08-12T04:16:40;16.60;99.90
16154;DHT22;8182;55.648;13.208;2023-08-12T04:19:07;16.60;99.90
16154;DHT22;8182;55.648;13.208;2023-08-12T04:21:34;16.50;99.90
16154;DHT22;8182;55.648;13.208;2023-08-12T04:24:01;16.50;99.90
16154;DHT22;8182;55.648;13.208;2023-08-12T04:26:28;16.60;99.90
16154;DHT22;8182;55.648;13.208;2023-08-12T04:28:55;16.60;99.90
16154;DHT22;8182;55.648;13.208;2023-08-12T04:31:24;16.60;99.90
16154;DHT22;8182;55.648;13.208;2023-08-12T04:33:51;16.60;99.90
16154;DHT22;8182;55.648;13.208;2023-08-12T04:36:18;16.60;99.90
16154;DHT22;8182;55.648;13.208;2023-08-12T04:38:45;16.60;99.90
16154;DHT22;8182;55.648;13.208;2023-08-12T04:41:12;16.60;99.90
16154;DHT22;8182;55.648;13.208;2023-08-12T04:43:39;16.60;99.90
16154;DHT22;8182;55.648;13.208;2023-08-12T04:46:06;16.60;99.90
16154;DHT22;8182;55.648;13.208;2023-08-12T04:48:35;16.70;99.90
16154;DHT22;8182;55.648;13.208;2023-08-12T04:51:02;16.70;99.90
16154;DHT22;8182;55.648;13.208;2023-08-12T04:53:30;16.70;99.90
16154;DHT22;8182;55.648;13.208;2023-08-12T04:55:57;16.70;99.90
16154;DHT22;8182;55.648;13.208;2023-08-12T04:58:24;16.70;99.90
16154;DHT22;8182;55.648;13.208;2023-08-12T05:00:52;16.70;99.90
16154;DHT22;8182;55.648;13.208;2023-08-12T05:03:18;16.70;99.90
16154;DHT22;8182;55.648;13.208;2023-08-12T05:05:50;16.80;99.90
16154;DHT22;8182;55.648;13.208;2023-08-12T05:08:18;16.80;99.90
16154;DHT22;8182;55.648;13.208;2023-08-12T05:10:47;16.80;99.90
16154;DHT22;8182;55.648;13.208;2023-08-12T05:13:14;16.80;99.90
16154;DHT22;8182;55.648;13.208;2023-08-12T05:15:41;16.90;99.90
16154;DHT22;8182;55.648;13.208;2023-08-12T05:18:07;16.90;99.90
16154;DHT22;8182;55.648;13.208;2023-08-12T05:20:34;16.90;99.90
16154;DHT22;8182;55.648;13.208;2023-08-12T05:23:03;16.90;99.90
16154;DHT22;8182;55.648;13.208;2023-08-12T05:25:30;16.90;99.90
16154;DHT22;8182;55.648;13.208;2023-08-12T05:27:58;16.90;99.90
16154;DHT22;8182;55.648;13.208;2023-08-12T05:30:25;17.00;99.90
16154;DHT22;8182;55.648;13.208;2023-08-12T05:32:52;17.00;99.90
16154;DHT22;8182;55.648;13.208;2023-08-12T05:35:18;17.00;99.90
16154;DHT22;8182;55.648;13.208;2023-08-12T05:37:45;16.90;99.90
16154;DHT22;8182;55.648;13.208;2023-08-12T05:40:14;17.00;99.90
16154;DHT22;8182;55.648;13.208;2023-08-12T05:42:40;17.00;99.90
16154;DHT22;8182;55.648;13.208;2023-08-12T05:45:08;17.00;99.90
16154;DHT22;8182;55.648;13.208;2023-08-12T05:47:36;17.00;99.90
16154;DHT22;8182;55.648;13.208;2023-08-12T05:50:04;17.00;99.90
16154;DHT22;8182;55.648;13.208;2023-08-12T05:52:32;17.10;99.90
16154;DHT22;8182;55.648;13.208;2023-08-12T05:54:59;17.10;99.90
16154;DHT22;8182;55.648;13.208;2023-08-12T05:57:27;17.10;99.90
16154;DHT22;8182;55.648;13.208;2023-08-12T05:59:54;17.10;99.90
16154;DHT22;8182;55.648;13.208;2023-08-12T06:02:21;17.20;99.90
16154;DHT22;8182;55.648;13.208;2023-08-12T06:04:49;17.20;99.90
16154;DHT22;8182;55.648;13.208;2023-08-12T06:07:15;17.30;99.90
16154;DHT22;8182;55.648;13.208;2023-08-12T06:09:47;17.30;99.90
16154;DHT22;8182;55.648;13.208;2023-08-12T06:12:14;17.30;99.90
16154;DHT22;8182;55.648;13.208;2023-08-12T06:14:43;17.30;99.90
16154;DHT22;8182;55.648;13.208;2023-08-12T06:17:10;17.40;99.90
16154;DHT22;8182;55.648;13.208;2023-08-12T06:19:37;17.40;99.90
16154;DHT22;8182;55.648;13.208;2023-08-12T06:22:04;17.40;99.90
16154;DHT22;8182;55.648;13.208;2023-08-12T06:24:31;17.40;99.90
16154;DHT22;8182;55.648;13.208;2023-08-12T06:26:57;17.50;99.90
16154;DHT22;8182;55.648;13.208;2023-08-12T06:29:24;17.50;99.90
16154;DHT22;8182;55.648;13.208;2023-08-12T06:31:53;17.50;99.90
16154;DHT22;8182;55.648;13.208;2023-08-12T06:34:20;17.50;99.90
16154;DHT22;8182;55.648;13.208;2023-08-12T06:36:46;17.60;99.90
16154;DHT22;8182;55.648;13.208;2023-08-12T06:39:13;17.60;99.90
16154;DHT22;8182;55.648;13.208;2023-08-12T06:41:40;17.70;99.90
16154;DHT22;8182;55.648;13.208;2023-08-12T06:44:09;17.80;99.90
16154;DHT22;8182;55.648;13.208;2023-08-12T06:46:36;17.70;99.90
16154;DHT22;8182;55.648;13.208;2023-08-12T06:49:04;17.70;99.90
16154;DHT22;8182;55.648;13.208;2023-08-12T06:51:31;17.80;99.90
16154;DHT22;8182;55.648;13.208;2023-08-12T06:53:58;17.80;99.90
16154;DHT22;8182;55.648;13.208;2023-08-12T06:56:25;17.80;99.90
16154;DHT22;8182;55.648;13.208;2023-08-12T06:58:52;17.80;99.90
16154;DHT22;8182;55.648;13.208;2023-08-12T07:01:19;17.90;99.90
16154;DHT22;8182;55.648;13.208;2023-08-12T07:03:45;17.90;99.90
16154;DHT22;8182;55.648;13.208;2023-08-12T07:06:15;17.90;99.90
16154;DHT22;8182;55.648;13.208;2023-08-12T07:08:42;18.00;99.90
16154;DHT22;8182;55.648;13.208;2023-08-12T07:11:09;17.90;99.90
16154;DHT22;8182;55.648;13.208;2023-08-12T07:13:36;18.00;99.90
16154;DHT22;8182;55.648;13.208;2023-08-12T07:16:03;18.00;99.90
16154;DHT22;8182;55.648;13.208;2023-08-12T07:18:30;18.10;99.90
16154;DHT22;8182;55.648;13.208;2023-08-12T07:20:57;18.20;99.90
16154;DHT22;8182;55.648;13.208;2023-08-12T07:23:26;18.30;99.90
16154;DHT22;8182;55.648;13.208;2023-08-12T07:25:53;18.40;99.90
16154;DHT22;8182;55.648;13.208;2023-08-12T07:28:20;18.50;99.90
16154;DHT22;8182;55.648;13.208;2023-08-12T07:30:48;18.60;99.90
16154;DHT22;8182;55.648;13.208;2023-08-12T07:33:15;18.80;99.90
16154;DHT22;8182;55.648;13.208;2023-08-12T07:35:42;18.90;99.90
16154;DHT22;8182;55.648;13.208;2023-08-12T07:38:09;18.90;99.90
16154;DHT22;8182;55.648;13.208;2023-08-12T07:40:37;19.00;99.90
16154;DHT22;8182;55.648;13.208;2023-08-12T07:43:04;19.10;99.90
16154;DHT22;8182;55.648;13.208;2023-08-12T07:45:32;19.30;99.90
16154;DHT22;8182;55.648;13.208;2023-08-12T07:47:58;19.30;99.90
16154;DHT22;8182;55.648;13.208;2023-08-12T07:50:25;19.30;99.90
16154;DHT22;8182;55.648;13.208;2023-08-12T07:52:52;19.40;99.90
16154;DHT22;8182;55.648;13.208;2023-08-12T07:55:19;19.40;99.90
16154;DHT22;8182;55.648;13.208;2023-08-12T07:57:48;19.50;99.90
16154;DHT22;8182;55.648;13.208;2023-08-12T08:00:15;19.70;99.90
16154;DHT22;8182;55.648;13.208;2023-08-12T08:02:42;20.00;99.90
16154;DHT22;8182;55.648;13.208;2023-08-12T08:05:08;20.50;99.90
16154;DHT22;8182;55.648;13.208;2023-08-12T08:07:35;20.80;99.90
16154;DHT22;8182;55.648;13.208;2023-08-12T08:10:02;21.20;99.90
16154;DHT22;8182;55.648;13.208;2023-08-12T08:12:29;21.40;99.90
16154;DHT22;8182;55.648;13.208;2023-08-12T08:14:58;21.70;99.90
16154;DHT22;8182;55.648;13.208;2023-08-12T08:17:24;21.90;99.90
16154;DHT22;8182;55.648;13.208;2023-08-12T08:19:51;22.10;99.90
16154;DHT22;8182;55.648;13.208;2023-08-12T08:22:18;22.30;99.90
16154;DHT22;8182;55.648;13.208;2023-08-12T08:24:45;22.40;99.90
16154;DHT22;8182;55.648;13.208;2023-08-12T08:27:12;22.40;99.90
16154;DHT22;8182;55.648;13.208;2023-08-12T08:29:40;22.60;99.90
16154;DHT22;8182;55.648;13.208;2023-08-12T08:32:08;22.80;99.90
16154;DHT22;8182;55.648;13.208;2023-08-12T08:34:35;23.00;99.90
16154;DHT22;8182;55.648;13.208;2023-08-12T08:37:02;23.10;99.90
16154;DHT22;8182;55.648;13.208;2023-08-12T08:39:29;23.10;99.90
16154;DHT22;8182;55.648;13.208;2023-08-12T08:41:56;23.60;99.90
16154;DHT22;8182;55.648;13.208;2023-08-12T08:44:29;23.80;99.90
16154;DHT22;8182;55.648;13.208;2023-08-12T08:46:58;24.10;99.90
16154;DHT22;8182;55.648;13.208;2023-08-12T08:49:28;24.00;99.90
16154;DHT22;8182;55.648;13.208;2023-08-12T08:51:56;23.70;99.90
16154;DHT22;8182;55.648;13.208;2023-08-12T08:54:25;23.90;99.90
16154;DHT22;8182;55.648;13.208;2023-08-12T08:56:53;24.30;99.90
16154;DHT22;8182;55.648;13.208;2023-08-12T08:59:20;25.10;99.90
16154;DHT22;8182;55.648;13.208;2023-08-12T09:01:49;25.20;99.90
16154;DHT22;8182;55.648;13.208;2023-08-12T09:04:17;25.10;99.90
16154;DHT22;8182;55.648;13.208;2023-08-12T09:06:47;25.70;99.90
16154;DHT22;8182;55.648;13.208;2023-08-12T09:09:16;26.10;99.90
16154;DHT22;8182;55.648;13.208;2023-08-12T09:11:45;26.30;99.90
16154;DHT22;8182;55.648;13.208;2023-08-12T09:14:12;26.20;99.90
16154;DHT22;8182;55.648;13.208;2023-08-12T09:16:40;26.30;99.90
16154;DHT22;8182;55.648;13.208;2023-08-12T09:19:07;26.50;99.90
16154;DHT22;8182;55.648;13.208;2023-08-12T09:21:34;26.30;99.90
16154;DHT22;8182;55.648;13.208;2023-08-12T09:24:04;25.90;99.90
16154;DHT22;8182;55.648;13.208;2023-08-12T09:26:31;25.50;99.90
16154;DHT22;8182;55.648;13.208;2023-08-12T09:28:59;25.40;99.90
16154;DHT22;8182;55.648;13.208;2023-08-12T09:31:27;25.20;99.90
16154;DHT22;8182;55.648;13.208;2023-08-12T09:33:57;25.00;99.90
16154;DHT22;8182;55.648;13.208;2023-08-12T09:36:27;24.50;99.90
16154;DHT22;8182;55.648;13.208;2023-08-12T09:38:55;24.40;99.90
16154;DHT22;8182;55.648;13.208;2023-08-12T09:41:24;24.10;99.90
16154;DHT22;8182;55.648;13.208;2023-08-12T09:43:52;23.90;99.90
16154;DHT22;8182;55.648;13.208;2023-08-12T09:46:21;23.80;99.90
16154;DHT22;8182;55.648;13.208;2023-08-12T09:48:49;23.80;99.90
16154;DHT22;8182;55.648;13.208;2023-08-12T09:51:18;23.90;99.90
16154;DHT22;8182;55.648;13.208;2023-08-12T09:53:46;24.30;99.90
16154;DHT22;8182;55.648;13.208;2023-08-12T09:56:17;24.60;99.90
16154;DHT22;8182;55.648;13.208;2023-08-12T09:58:47;24.70;99.90
16154;DHT22;8182;55.648;13.208;2023-08-12T10:01:18;25.10;99.90
16154;DHT22;8182;55.648;13.208;2023-08-12T10:03:48;25.30;99.90
16154;DHT22;8182;55.648;13.208;2023-08-12T10:06:17;25.50;99.90
16154;DHT22;8182;55.648;13.208;2023-08-12T10:08:46;25.90;99.90
16154;DHT22;8182;55.648;13.208;2023-08-12T10:11:13;25.80;99.90
16154;DHT22;8182;55.648;13.208;2023-08-12T10:13:41;25.80;99.90
16154;DHT22;8182;55.648;13.208;2023-08-12T10:16:10;26.00;99.90
16154;DHT22;8182;55.648;13.208;2023-08-12T10:18:38;26.20;99.90
16154;DHT22;8182;55.648;13.208;2023-08-12T10:21:09;26.50;99.90
16154;DHT22;8182;55.648;13.208;2023-08-12T10:23:36;26.70;99.90
16154;DHT22;8182;55.648;13.208;2023-08-12T10:26:05;26.70;99.90
16154;DHT22;8182;55.648;13.208;2023-08-12T10:28:32;27.20;99.90
16154;DHT22;8182;55.648;13.208;2023-08-12T10:31:03;27.30;99.90
16154;DHT22;8182;55.648;13.208;2023-08-12T10:33:36;27.10;99.90
16154;DHT22;8182;55.648;13.208;2023-08-12T10:36:04;26.70;99.90
16154;DHT22;8182;55.648;13.208;2023-08-12T10:38:32;26.20;99.90
16154;DHT22;8182;55.648;13.208;2023-08-12T10:41:15;25.80;99.90
16154;DHT22;8182;55.648;13.208;2023-08-12T10:43:53;25.60;99.90
16154;DHT22;8182;55.648;13.208;2023-08-12T10:46:28;25.70;99.90
16154;DHT22;8182;55.648;13.208;2023-08-12T10:49:03;25.80;99.90
16154;DHT22;8182;55.648;13.208;2023-08-12T10:51:40;26.10;99.90
16154;DHT22;8182;55.648;13.208;2023-08-12T10:54:17;26.30;99.90
16154;DHT22;8182;55.648;13.208;2023-08-12T10:57:06;26.50;99.90
16154;DHT22;8182;55.648;13.208;2023-08-12T10:59:52;26.70;99.90
16154;DHT22;8182;55.648;13.208;2023-08-12T11:02:22;26.20;99.90
16154;DHT22;8182;55.648;13.208;2023-08-12T11:04:52;26.00;99.90
16154;DHT22;8182;55.648;13.208;2023-08-12T11:07:37;26.10;99.90
16154;DHT22;8182;55.648;13.208;2023-08-12T11:10:09;25.90;99.90
16154;DHT22;8182;55.648;13.208;2023-08-12T11:12:39;25.70;99.90
16154;DHT22;8182;55.648;13.208;2023-08-12T11:15:06;25.80;99.90
16154;DHT22;8182;55.648;13.208;2023-08-12T11:17:34;25.70;99.90
16154;DHT22;8182;55.648;13.208;2023-08-12T11:20:04;25.90;99.90
16154;DHT22;8182;55.648;13.208;2023-08-12T11:22:33;25.90;99.90
16154;DHT22;8182;55.648;13.208;2023-08-12T11:25:03;25.80;99.90
16154;DHT22;8182;55.648;13.208;2023-08-12T11:27:39;25.50;99.90
16154;DHT22;8182;55.648;13.208;2023-08-12T11:30:07;25.30;99.90
16154;DHT22;8182;55.648;13.208;2023-08-12T11:32:36;25.30;99.90
16154;DHT22;8182;55.648;13.208;2023-08-12T11:35:06;25.30;99.90
16154;DHT22;8182;55.648;13.208;2023-08-12T11:37:35;25.40;99.90
16154;DHT22;8182;55.648;13.208;2023-08-12T11:40:04;25.30;99.90
16154;DHT22;8182;55.648;13.208;2023-08-12T11:42:31;25.30;99.90
16154;DHT22;8182;55.648;13.208;2023-08-12T11:44:58;25.20;99.90
16154;DHT22;8182;55.648;13.208;2023-08-12T11:47:25;25.20;99.90
16154;DHT22;8182;55.648;13.208;2023-08-12T11:49:55;25.10;99.90
16154;DHT22;8182;55.648;13.208;2023-08-12T11:52:24;25.20;99.90
16154;DHT22;8182;55.648;13.208;2023-08-12T11:54:51;25.30;99.90
16154;DHT22;8182;55.648;13.208;2023-08-12T11:57:22;25.20;99.90
16154;DHT22;8182;55.648;13.208;2023-08-12T11:59:49;25.30;99.90
16154;DHT22;8182;55.648;13.208;2023-08-12T12:02:16;25.30;99.90
16154;DHT22;8182;55.648;13.208;2023-08-12T12:04:43;25.30;99.90
16154;DHT22;8182;55.648;13.208;2023-08-12T12:07:18;25.10;99.90
16154;DHT22;8182;55.648;13.208;2023-08-12T12:09:46;24.90;99.90
16154;DHT22;8182;55.648;13.208;2023-08-12T12:12:22;24.70;99.90
16154;DHT22;8182;55.648;13.208;2023-08-12T12:14:51;24.60;99.90
16154;DHT22;8182;55.648;13.208;2023-08-12T12:17:18;24.50;99.90
16154;DHT22;8182;55.648;13.208;2023-08-12T12:19:47;24.60;99.90
16154;DHT22;8182;55.648;13.208;2023-08-12T12:22:13;24.60;99.90
16154;DHT22;8182;55.648;13.208;2023-08-12T12:24:46;24.60;99.90
16154;DHT22;8182;55.648;13.208;2023-08-12T12:27:15;24.70;99.90
16154;DHT22;8182;55.648;13.208;2023-08-12T12:29:41;24.80;99.90
16154;DHT22;8182;55.648;13.208;2023-08-12T12:32:09;24.80;99.90
16154;DHT22;8182;55.648;13.208;2023-08-12T12:34:36;25.00;99.90
16154;DHT22;8182;55.648;13.208;2023-08-12T12:37:03;25.10;99.90
16154;DHT22;8182;55.648;13.208;2023-08-12T12:39:30;25.10;99.90
16154;DHT22;8182;55.648;13.208;2023-08-12T12:42:04;25.10;99.90
16154;DHT22;8182;55.648;13.208;2023-08-12T12:44:31;25.00;99.90
16154;DHT22;8182;55.648;13.208;2023-08-12T12:46:58;25.00;99.90
16154;DHT22;8182;55.648;13.208;2023-08-12T12:49:25;25.10;99.90
16154;DHT22;8182;55.648;13.208;2023-08-12T12:51:54;25.00;99.90
16154;DHT22;8182;55.648;13.208;2023-08-12T12:54:20;24.90;99.90
16154;DHT22;8182;55.648;13.208;2023-08-12T12:56:48;24.90;99.90
16154;DHT22;8182;55.648;13.208;2023-08-12T12:59:16;25.10;99.90
16154;DHT22;8182;55.648;13.208;2023-08-12T13:01:47;25.00;99.90
16154;DHT22;8182;55.648;13.208;2023-08-12T13:04:13;25.00;99.90
16154;DHT22;8182;55.648;13.208;2023-08-12T13:06:40;25.10;99.90
16154;DHT22;8182;55.648;13.208;2023-08-12T13:09:07;25.10;99.90
16154;DHT22;8182;55.648;13.208;2023-08-12T13:11:34;25.00;99.90
16154;DHT22;8182;55.648;13.208;2023-08-12T13:14:02;25.00;99.90
16154;DHT22;8182;55.648;13.208;2023-08-12T13:16:31;25.00;99.90
16154;DHT22;8182;55.648;13.208;2023-08-12T13:18:58;25.00;99.90
16154;DHT22;8182;55.648;13.208;2023-08-12T13:21:25;24.90;99.90
16154;DHT22;8182;55.648;13.208;2023-08-12T13:23:55;24.90;99.90
16154;DHT22;8182;55.648;13.208;2023-08-12T13:26:25;25.00;99.90
16154;DHT22;8182;55.648;13.208;2023-08-12T13:28:56;25.00;99.90
16154;DHT22;8182;55.648;13.208;2023-08-12T13:31:23;24.90;99.90
16154;DHT22;8182;55.648;13.208;2023-08-12T13:33:52;24.90;99.90
16154;DHT22;8182;55.648;13.208;2023-08-12T13:36:19;24.80;99.90
16154;DHT22;8182;55.648;13.208;2023-08-12T13:38:46;24.90;99.90
16154;DHT22;8182;55.648;13.208;2023-08-12T13:41:13;24.70;99.90
16154;DHT22;8182;55.648;13.208;2023-08-12T13:43:40;24.70;99.90
16154;DHT22;8182;55.648;13.208;2023-08-12T13:46:07;24.60;99.90
16154;DHT22;8182;55.648;13.208;2023-08-12T13:48:34;24.60;99.90
16154;DHT22;8182;55.648;13.208;2023-08-12T13:51:03;24.60;99.90
16154;DHT22;8182;55.648;13.208;2023-08-12T13:53:30;24.60;99.90
16154;DHT22;8182;55.648;13.208;2023-08-12T13:55:56;24.70;99.90
16154;DHT22;8182;55.648;13.208;2023-08-12T13:58:30;24.80;99.90
16154;DHT22;8182;55.648;13.208;2023-08-12T14:00:56;24.90;99.90
16154;DHT22;8182;55.648;13.208;2023-08-12T14:03:24;24.70;99.90
16154;DHT22;8182;55.648;13.208;2023-08-12T14:05:51;24.70;99.90
16154;DHT22;8182;55.648;13.208;2023-08-12T14:08:21;24.70;99.90
16154;DHT22;8182;55.648;13.208;2023-08-12T14:10:48;24.60;99.90
16154;DHT22;8182;55.648;13.208;2023-08-12T14:13:16;24.50;99.90
16154;DHT22;8182;55.648;13.208;2023-08-12T14:15:43;24.50;99.90
16154;DHT22;8182;55.648;13.208;2023-08-12T14:18:09;24.40;99.90
16154;DHT22;8182;55.648;13.208;2023-08-12T14:20:37;24.30;99.90
16154;DHT22;8182;55.648;13.208;2023-08-12T14:23:04;24.40;99.90
16154;DHT22;8182;55.648;13.208;2023-08-12T14:25:32;24.50;99.90
16154;DHT22;8182;55.648;13.208;2023-08-12T14:27:59;24.60;99.90
16154;DHT22;8182;55.648;13.208;2023-08-12T14:30:26;24.70;99.90
16154;DHT22;8182;55.648;13.208;2023-08-12T14:32:53;24.70;99.90
16154;DHT22;8182;55.648;13.208;2023-08-12T14:35:20;24.60;99.90
16154;DHT22;8182;55.648;13.208;2023-08-12T14:37:47;24.70;99.90
16154;DHT22;8182;55.648;13.208;2023-08-12T14:40:14;24.50;99.90
16154;DHT22;8182;55.648;13.208;2023-08-12T14:42:42;24.30;99.90
16154;DHT22;8182;55.648;13.208;2023-08-12T14:45:09;24.30;99.90
16154;DHT22;8182;55.648;13.208;2023-08-12T14:47:37;24.20;99.90
16154;DHT22;8182;55.648;13.208;2023-08-12T14:50:05;24.00;99.90
16154;DHT22;8182;55.648;13.208;2023-08-12T14:52:31;23.90;99.90
16154;DHT22;8182;55.648;13.208;2023-08-12T14:54:58;23.80;99.90
16154;DHT22;8182;55.648;13.208;2023-08-12T14:57:26;23.80;99.90
16154;DHT22;8182;55.648;13.208;2023-08-12T14:59:55;23.60;99.90
16154;DHT22;8182;55.648;13.208;2023-08-12T15:02:22;23.60;99.90
16154;DHT22;8182;55.648;13.208;2023-08-12T15:04:49;23.50;99.90
16154;DHT22;8182;55.648;13.208;2023-08-12T15:07:16;23.40;99.90
16154;DHT22;8182;55.648;13.208;2023-08-12T15:09:44;23.20;99.90
16154;DHT22;8182;55.648;13.208;2023-08-12T15:12:11;23.10;99.90
16154;DHT22;8182;55.648;13.208;2023-08-12T15:14:38;23.00;99.90
16154;DHT22;8182;55.648;13.208;2023-08-12T15:17:06;22.90;99.90
16154;DHT22;8182;55.648;13.208;2023-08-12T15:19:33;22.80;99.90
16154;DHT22;8182;55.648;13.208;2023-08-12T15:22:02;22.70;99.90
16154;DHT22;8182;55.648;13.208;2023-08-12T15:24:29;22.70;99.90
16154;DHT22;8182;55.648;13.208;2023-08-12T15:26:56;22.70;99.90
16154;DHT22;8182;55.648;13.208;2023-08-12T15:29:23;22.60;99.90
16154;DHT22;8182;55.648;13.208;2023-08-12T15:31:50;22.60;99.90
16154;DHT22;8182;55.648;13.208;2023-08-12T15:34:18;22.50;99.90
16154;DHT22;8182;55.648;13.208;2023-08-12T15:36:45;22.40;99.90